createdAt,value
2023-04-28T00:00:23.348Z,48.80
2023-04-28T00:02:52.756Z,48.70
2023-04-28T00:05:25.225Z,48.70
2023-04-28T00:07:52.211Z,48.70
2023-04-28T00:10:21.599Z,48.80
2023-04-28T00:12:48.517Z,48.80
2023-04-28T00:15:17.977Z,48.80
2023-04-28T00:17:44.965Z,48.90
2023-04-28T00:20:12.491Z,48.90
2023-04-28T00:22:39.486Z,49.00
2023-04-28T00:25:08.413Z,49.10
2023-04-28T00:27:35.914Z,49.20
2023-04-28T00:30:03.132Z,49.30
2023-04-28T00:32:32.131Z,49.30
2023-04-28T00:35:01.251Z,49.30
2023-04-28T00:37:28.108Z,49.30
2023-04-28T00:39:58.157Z,49.30
2023-04-28T00:42:25.096Z,49.40
2023-04-28T00:44:52.046Z,49.40
2023-04-28T00:47:21.939Z,49.40
2023-04-28T00:49:52.203Z,49.40
2023-04-28T00:52:19.058Z,49.40
2023-04-28T00:54:49.482Z,49.40
2023-04-28T00:57:18.479Z,49.50
2023-04-28T00:59:45.740Z,49.40
2023-04-28T01:02:18.277Z,49.50
2023-04-28T01:04:47.133Z,49.50
2023-04-28T01:07:14.023Z,49.50
2023-04-28T01:09:40.874Z,49.50
2023-04-28T01:12:08.008Z,49.50
2023-04-28T01:14:35.396Z,49.40
2023-04-28T01:17:02.721Z,49.50
2023-04-28T01:19:31.812Z,49.50
2023-04-28T01:22:01.256Z,49.70
2023-04-28T01:24:31.011Z,49.60
2023-04-28T01:27:00.672Z,49.70
2023-04-28T01:29:27.838Z,49.70
2023-04-28T01:31:57.257Z,49.70
2023-04-28T01:34:24.336Z,49.80
2023-04-28T01:36:53.526Z,49.80
2023-04-28T01:39:20.411Z,49.90
2023-04-28T01:41:50.425Z,49.90
2023-04-28T01:44:17.645Z,49.90
2023-04-28T01:46:46.956Z,50.00
2023-04-28T01:49:13.798Z,50.00
2023-04-28T01:51:41.742Z,50.00
2023-04-28T01:54:14.461Z,50.00
2023-04-28T01:57:30.960Z,50.00
2023-04-28T01:59:59.639Z,50.20
2023-04-28T02:02:26.711Z,50.00
2023-04-28T02:04:58.132Z,50.10
2023-04-28T02:07:27.590Z,50.10
2023-04-28T02:09:54.440Z,50.20
2023-04-28T02:12:21.286Z,50.10
2023-04-28T02:14:51.221Z,50.30
2023-04-28T02:17:18.128Z,50.30
2023-04-28T02:19:45.038Z,50.30
2023-04-28T02:22:11.914Z,50.40
2023-04-28T02:24:41.550Z,50.40
2023-04-28T02:27:08.486Z,50.50
2023-04-28T02:29:35.347Z,50.60
2023-04-28T02:32:02.244Z,50.80
2023-04-28T02:34:29.139Z,50.90
2023-04-28T02:36:58.258Z,50.90
2023-04-28T02:39:26.956Z,51.10
2023-04-28T02:41:54.297Z,51.10
2023-04-28T02:44:21.472Z,51.20
2023-04-28T02:46:48.814Z,51.30
2023-04-28T02:49:20.360Z,51.90
2023-04-28T02:51:47.158Z,51.50
2023-04-28T02:54:16.719Z,51.70
2023-04-28T02:56:43.577Z,51.40
2023-04-28T02:59:10.700Z,51.50
2023-04-28T03:01:39.829Z,51.70
2023-04-28T03:04:08.194Z,51.80
2023-04-28T03:06:37.551Z,51.90
2023-04-28T03:09:04.430Z,52.00
2023-04-28T03:11:31.315Z,52.10
2023-04-28T03:13:58.174Z,52.10
2023-04-28T03:16:25.093Z,52.20
2023-04-28T03:18:54.314Z,52.30
2023-04-28T03:21:27.805Z,52.40
2023-04-28T03:23:54.815Z,52.50
2023-04-28T03:26:24.777Z,52.50
2023-04-28T03:28:51.764Z,52.50
2023-04-28T03:31:20.891Z,52.60
2023-04-28T03:33:47.846Z,52.60
2023-04-28T03:36:19.697Z,53.30
2023-04-28T03:38:46.799Z,52.70
2023-04-28T03:41:13.626Z,52.70
2023-04-28T03:43:40.498Z,52.80
2023-04-28T03:46:09.926Z,52.80
2023-04-28T03:48:36.878Z,53.50
2023-04-28T03:51:03.934Z,52.80
2023-04-28T03:53:30.922Z,52.80
2023-04-28T03:55:58.061Z,52.80
2023-04-28T03:58:28.480Z,52.90
2023-04-28T04:00:55.356Z,53.00
2023-04-28T04:03:26.225Z,53.00
2023-04-28T04:05:55.080Z,53.10
2023-04-28T04:08:22.161Z,53.10
2023-04-28T04:10:54.899Z,53.10
2023-04-28T04:13:22.872Z,53.80
2023-04-28T04:15:50.884Z,53.10
2023-04-28T04:18:18.195Z,53.10
2023-04-28T04:20:47.264Z,53.10
2023-04-28T04:23:14.118Z,53.10
2023-04-28T04:25:43.271Z,53.20
2023-04-28T04:28:12.720Z,53.30
2023-04-28T04:30:39.608Z,53.30
2023-04-28T04:33:09.013Z,53.40
2023-04-28T04:35:35.956Z,53.50
2023-04-28T04:38:05.846Z,53.50
2023-04-28T04:40:32.743Z,53.50
2023-04-28T04:42:59.955Z,53.60
2023-04-28T04:45:27.176Z,53.60
2023-04-28T04:47:56.253Z,53.60
2023-04-28T04:50:25.525Z,53.70
2023-04-28T04:52:54.508Z,53.60
2023-04-28T04:55:23.606Z,53.70
2023-04-28T04:57:50.883Z,53.70
2023-04-28T05:00:23.399Z,53.70
2023-04-28T05:02:50.448Z,53.80
2023-04-28T05:05:21.937Z,53.80
2023-04-28T05:07:49.689Z,53.90
2023-04-28T05:10:19.061Z,53.80
2023-04-28T05:12:48.811Z,53.90
2023-04-28T05:15:16.404Z,54.00
2023-04-28T05:17:45.723Z,54.00
2023-04-28T05:20:14.956Z,54.00
2023-04-28T05:22:44.368Z,54.10
2023-04-28T05:25:11.326Z,54.20
2023-04-28T05:27:39.660Z,54.30
2023-04-28T05:30:10.607Z,54.30
2023-04-28T05:32:40.430Z,54.30
2023-04-28T05:35:12.289Z,54.30
2023-04-28T05:37:39.814Z,54.30
2023-04-28T05:40:09.881Z,54.30
2023-04-28T05:42:36.755Z,54.30
2023-04-28T05:45:04.012Z,54.40
2023-04-28T05:47:31.195Z,54.40
2023-04-28T05:50:00.701Z,54.40
2023-04-28T05:52:30.324Z,54.40
2023-04-28T05:54:57.239Z,54.50
2023-04-28T05:57:24.494Z,54.50
2023-04-28T05:59:53.878Z,54.60
2023-04-28T06:02:22.700Z,54.70
2023-04-28T06:04:50.444Z,54.70
2023-04-28T06:07:19.742Z,54.70
2023-04-28T06:09:52.241Z,54.80
2023-04-28T06:12:21.610Z,54.90
2023-04-28T06:14:48.521Z,54.90
2023-04-28T06:17:15.458Z,54.90
2023-04-28T06:19:42.345Z,55.00
2023-04-28T06:22:11.739Z,55.00
2023-04-28T06:24:38.736Z,55.20
2023-04-28T06:27:09.011Z,55.20
2023-04-28T06:29:38.351Z,55.50
2023-04-28T06:32:05.823Z,55.30
2023-04-28T06:34:32.850Z,55.40
2023-04-28T06:37:01.929Z,55.40
2023-04-28T06:39:31.560Z,55.50
2023-04-28T06:41:58.474Z,55.60
2023-04-28T06:44:27.925Z,55.60
2023-04-28T06:46:55.189Z,55.70
2023-04-28T06:49:24.374Z,55.70
2023-04-28T06:51:54.306Z,55.70
2023-04-28T06:54:21.629Z,55.80
2023-04-28T06:56:48.502Z,55.80
2023-04-28T06:59:15.568Z,55.80
2023-04-28T07:01:44.903Z,55.80
2023-04-28T07:04:14.378Z,55.90
2023-04-28T07:06:41.405Z,55.90
2023-04-28T07:09:08.353Z,55.90
2023-04-28T07:11:37.473Z,55.90
2023-04-28T07:14:04.403Z,55.90
2023-04-28T07:16:36.131Z,55.90
2023-04-28T07:19:03.164Z,55.90
2023-04-28T07:21:32.679Z,55.90
2023-04-28T07:23:59.631Z,56.00
2023-04-28T07:26:26.602Z,56.00
2023-04-28T07:28:56.325Z,56.00
2023-04-28T07:31:23.275Z,56.00
2023-04-28T07:33:50.260Z,56.10
2023-04-28T07:36:17.254Z,56.10
2023-04-28T07:38:44.210Z,56.20
2023-04-28T07:41:11.536Z,56.20
2023-04-28T07:43:41.359Z,56.20
2023-04-28T07:46:13.189Z,56.20
2023-04-28T07:48:40.229Z,56.20
2023-04-28T07:51:09.242Z,56.20
2023-04-28T07:53:40.720Z,56.20
2023-04-28T07:56:07.794Z,56.30
2023-04-28T07:58:40.079Z,56.30
2023-04-28T08:01:07.064Z,56.40
2023-04-28T08:03:34.188Z,56.30
2023-04-28T08:06:03.741Z,56.40
2023-04-28T08:08:31.127Z,56.40
2023-04-28T08:11:02.832Z,56.50
2023-04-28T08:13:30.793Z,56.50
2023-04-28T08:16:00.957Z,56.60
2023-04-28T08:18:28.918Z,56.70
2023-04-28T08:20:58.106Z,56.70
2023-04-28T08:23:31.914Z,56.80
2023-04-28T08:26:02.095Z,56.90
2023-04-28T08:28:33.988Z,56.90
2023-04-28T08:31:01.150Z,57.00
2023-04-28T08:33:30.638Z,57.00
2023-04-28T08:36:00.113Z,57.00
2023-04-28T08:38:29.921Z,57.10
2023-04-28T08:40:56.738Z,57.20
2023-04-28T08:43:26.193Z,57.20
2023-04-28T08:45:53.357Z,57.20
2023-04-28T08:48:26.207Z,57.30
2023-04-28T08:50:56.633Z,57.30
2023-04-28T08:53:32.396Z,57.40
2023-04-28T08:56:06.004Z,57.50
2023-04-28T08:58:40.909Z,58.10
2023-04-28T09:01:11.452Z,57.60
2023-04-28T09:03:41.057Z,57.60
2023-04-28T09:06:08.310Z,57.70
2023-04-28T09:08:35.216Z,57.80
2023-04-28T09:11:13.570Z,57.80
2023-04-28T09:13:43.755Z,58.10
2023-04-28T09:16:10.725Z,57.90
2023-04-28T09:18:41.063Z,57.90
2023-04-28T09:21:13.010Z,57.90
2023-04-28T09:23:55.762Z,57.80
2023-04-28T09:26:23.202Z,58.00
2023-04-28T09:28:57.261Z,57.70
2023-04-28T09:31:25.908Z,57.70
2023-04-28T09:34:02.663Z,57.70
2023-04-28T09:36:32.781Z,57.80
2023-04-28T09:39:04.338Z,57.70
2023-04-28T09:41:42.841Z,57.70
2023-04-28T09:44:19.745Z,57.70
2023-04-28T09:46:49.868Z,57.70
2023-04-28T09:49:16.733Z,57.50
2023-04-28T09:51:43.595Z,57.60
2023-04-28T09:54:11.611Z,57.60
2023-04-28T09:56:41.311Z,57.70
2023-04-28T09:59:12.841Z,57.80
2023-04-28T10:01:41.469Z,57.80
2023-04-28T10:04:13.078Z,57.90
2023-04-28T10:06:45.980Z,57.80
2023-04-28T10:09:17.557Z,57.90
2023-04-28T10:11:49.220Z,57.90
2023-04-28T10:14:21.974Z,58.00
2023-04-28T10:16:52.010Z,58.00
2023-04-28T10:19:21.836Z,58.00
2023-04-28T10:22:20.121Z,58.30
2023-04-28T10:25:12.118Z,58.60
2023-04-28T10:27:42.254Z,58.70
2023-04-28T10:30:28.236Z,58.30
2023-04-28T10:33:14.713Z,58.30
2023-04-28T10:35:43.683Z,58.30
2023-04-28T10:38:21.827Z,57.90
2023-04-28T10:40:53.744Z,58.00
2023-04-28T10:43:29.627Z,57.90
2023-04-28T10:46:02.461Z,58.00
2023-04-28T10:48:29.817Z,57.90
2023-04-28T10:51:12.993Z,57.90
2023-04-28T10:53:43.457Z,58.20
2023-04-28T10:56:28.319Z,58.30
2023-04-28T10:59:00.159Z,58.60
2023-04-28T11:01:34.708Z,58.50
2023-04-28T11:04:13.271Z,58.60
2023-04-28T11:06:46.144Z,58.70
2023-04-28T11:09:14.135Z,58.50
2023-04-28T11:12:03.163Z,58.40
2023-04-28T11:14:33.255Z,58.50
2023-04-28T11:17:08.712Z,58.30
2023-04-28T11:19:45.227Z,58.30
2023-04-28T11:22:25.729Z,58.40
2023-04-28T11:25:08.104Z,58.50
2023-04-28T11:27:35.066Z,58.50
2023-04-28T11:30:06.127Z,58.30
2023-04-28T11:32:35.320Z,58.30
2023-04-28T11:35:09.506Z,59.00
2023-04-28T11:37:39.556Z,58.20
2023-04-28T11:40:16.336Z,58.10
2023-04-28T11:42:55.135Z,58.00
2023-04-28T11:45:25.705Z,58.00
2023-04-28T11:47:52.596Z,57.80
2023-04-28T11:50:37.071Z,57.70
2023-04-28T11:53:04.335Z,57.70
2023-04-28T11:55:34.624Z,57.60
2023-04-28T11:58:23.629Z,57.50
2023-04-28T12:01:15.746Z,57.80
2023-04-28T12:03:47.064Z,58.00
2023-04-28T12:06:18.975Z,58.00
2023-04-28T12:08:48.054Z,58.10
2023-04-28T12:11:22.439Z,58.10
2023-04-28T12:14:13.323Z,58.00
2023-04-28T12:16:47.405Z,58.40
2023-04-28T12:19:15.524Z,58.10
2023-04-28T12:21:43.269Z,58.10
2023-04-28T12:24:21.449Z,58.00
2023-04-28T12:26:54.633Z,58.20
2023-04-28T12:29:41.769Z,58.10
2023-04-28T12:32:11.167Z,58.00
2023-04-28T12:34:39.969Z,57.90
2023-04-28T12:37:09.654Z,57.90
2023-04-28T12:39:39.648Z,58.10
2023-04-28T12:42:09.733Z,58.30
2023-04-28T12:44:39.090Z,58.60
2023-04-28T12:47:13.228Z,58.90
2023-04-28T12:49:40.504Z,58.90
2023-04-28T12:52:10.131Z,58.70
2023-04-28T12:54:37.591Z,58.60
2023-04-28T12:57:07.356Z,58.60
2023-04-28T12:59:36.322Z,58.50
2023-04-28T13:02:05.983Z,58.50
2023-04-28T13:04:33.179Z,58.60
2023-04-28T13:07:00.563Z,58.40
2023-04-28T13:09:27.544Z,58.30
2023-04-28T13:11:54.664Z,58.10
2023-04-28T13:14:25.126Z,57.90
2023-04-28T13:16:54.640Z,57.80
2023-04-28T13:19:21.692Z,57.70
2023-04-28T13:21:50.738Z,57.60
2023-04-28T13:24:20.105Z,57.50
2023-04-28T13:26:49.281Z,57.40
2023-04-28T13:29:19.333Z,57.20
2023-04-28T13:31:46.518Z,57.10
2023-04-28T13:34:16.369Z,56.90
2023-04-28T13:36:44.118Z,56.80
2023-04-28T13:39:11.725Z,56.70
2023-04-28T13:41:44.250Z,56.50
2023-04-28T13:44:14.081Z,56.50
2023-04-28T13:46:41.520Z,56.70
2023-04-28T13:49:12.688Z,56.80
2023-04-28T13:51:39.802Z,56.90
2023-04-28T13:54:11.442Z,56.90
2023-04-28T13:56:38.568Z,56.90
2023-04-28T13:59:05.534Z,57.00
2023-04-28T14:01:34.806Z,56.90
2023-04-28T14:04:04.323Z,56.80
2023-04-28T14:06:34.736Z,56.60
2023-04-28T14:09:02.752Z,56.40
2023-04-28T14:11:31.901Z,56.30
2023-04-28T14:14:01.336Z,56.20
2023-04-28T14:16:28.985Z,56.10
2023-04-28T14:18:58.156Z,56.10
2023-04-28T14:21:27.229Z,56.30
2023-04-28T14:23:56.655Z,56.40
2023-04-28T14:26:28.430Z,56.50
2023-04-28T14:28:57.615Z,56.50
2023-04-28T14:31:27.065Z,56.50
2023-04-28T14:33:54.270Z,56.40
2023-04-28T14:36:26.029Z,56.40
2023-04-28T14:38:52.958Z,56.30
2023-04-28T14:41:21.881Z,56.30
2023-04-28T14:43:53.458Z,56.30
2023-04-28T14:46:23.384Z,56.40
2023-04-28T14:48:51.217Z,56.40
2023-04-28T14:51:21.772Z,56.30
2023-04-28T14:53:51.003Z,56.20
2023-04-28T14:56:20.451Z,56.10
2023-04-28T14:58:48.511Z,56.00
2023-04-28T15:01:15.575Z,55.90
2023-04-28T15:03:43.515Z,55.80
2023-04-28T15:06:11.925Z,55.90
2023-04-28T15:08:40.405Z,55.80
2023-04-28T15:11:10.326Z,55.70
2023-04-28T15:13:41.616Z,55.70
2023-04-28T15:16:10.112Z,55.70
2023-04-28T15:18:37.084Z,55.80
2023-04-28T15:21:04.185Z,55.80
2023-04-28T15:23:31.498Z,55.90
2023-04-28T15:25:58.435Z,55.90
2023-04-28T15:28:27.703Z,56.00
2023-04-28T15:30:54.668Z,56.10
2023-04-28T15:33:21.617Z,56.20
2023-04-28T15:35:48.823Z,56.20
2023-04-28T15:38:18.283Z,56.30
2023-04-28T15:40:46.389Z,56.20
2023-04-28T15:43:15.849Z,56.20
2023-04-28T15:45:44.894Z,56.30
2023-04-28T15:48:15.237Z,56.30
2023-04-28T15:50:44.765Z,56.40
2023-04-28T15:53:13.977Z,56.20
2023-04-28T15:55:40.904Z,56.20
2023-04-28T15:58:09.784Z,56.70
2023-04-28T16:00:37.120Z,56.00
2023-04-28T16:03:06.990Z,56.00
2023-04-28T16:05:36.741Z,55.90
2023-04-28T16:08:05.923Z,55.80
2023-04-28T16:10:38.465Z,55.80
2023-04-28T16:13:06.287Z,55.70
2023-04-28T16:15:34.709Z,55.60
2023-04-28T16:18:04.371Z,55.50
2023-04-28T16:20:33.723Z,55.40
2023-04-28T16:23:08.580Z,55.30
2023-04-28T16:25:35.890Z,55.20
2023-04-28T16:28:05.026Z,55.00
2023-04-28T16:30:35.876Z,54.80
2023-04-28T16:33:02.889Z,54.60
2023-04-28T16:35:31.514Z,54.50
2023-04-28T16:37:58.623Z,54.30
2023-04-28T16:40:25.641Z,54.20
2023-04-28T16:42:52.547Z,54.10
2023-04-28T16:45:23.571Z,54.10
2023-04-28T16:47:53.610Z,54.00
2023-04-28T16:50:23.341Z,53.90
2023-04-28T16:52:50.329Z,53.80
2023-04-28T16:55:18.870Z,53.70
2023-04-28T16:57:53.080Z,53.60
2023-04-28T17:00:20.918Z,53.70
2023-04-28T17:02:47.931Z,53.50
2023-04-28T17:05:15.053Z,53.40
2023-04-28T17:07:41.968Z,53.50
2023-04-28T17:10:09.668Z,53.30
2023-04-28T17:12:39.621Z,53.20
2023-04-28T17:15:08.136Z,53.20
2023-04-28T17:17:35.462Z,53.10
2023-04-28T17:20:05.326Z,53.10
2023-04-28T17:22:32.248Z,53.10
2023-04-28T17:24:59.490Z,53.10
2023-04-28T17:27:26.512Z,53.10
2023-04-28T17:29:58.413Z,53.20
2023-04-28T17:32:25.562Z,53.10
2023-04-28T17:34:54.701Z,53.10
2023-04-28T17:37:21.753Z,53.10
2023-04-28T17:39:52.568Z,53.10
2023-04-28T17:42:24.954Z,53.10
2023-04-28T17:44:52.429Z,53.10
2023-04-28T17:47:19.789Z,53.00
2023-04-28T17:49:47.070Z,53.10
2023-04-28T17:52:15.419Z,53.20
2023-04-28T17:54:42.652Z,53.20
2023-04-28T17:57:09.533Z,53.20
2023-04-28T17:59:36.556Z,53.10
2023-04-28T18:02:05.761Z,53.10
2023-04-28T18:04:32.651Z,53.80
2023-04-28T18:07:01.986Z,53.10
2023-04-28T18:09:31.572Z,53.10
2023-04-28T18:12:03.023Z,53.20
2023-04-28T18:14:32.860Z,53.10
2023-04-28T18:17:00.055Z,53.30
2023-04-28T18:19:28.251Z,53.20
2023-04-28T18:21:58.107Z,53.20
2023-04-28T18:24:25.290Z,53.10
2023-04-28T18:26:52.434Z,53.20
2023-04-28T18:29:21.482Z,53.20
2023-04-28T18:31:48.662Z,53.20
2023-04-28T18:34:15.989Z,53.30
2023-04-28T18:36:47.506Z,53.40
2023-04-28T18:39:14.392Z,53.50
2023-04-28T18:41:41.716Z,53.60
2023-04-28T18:44:08.825Z,53.60
2023-04-28T18:46:36.122Z,53.70
2023-04-28T18:49:03.576Z,53.60
2023-04-28T18:51:30.608Z,53.70
2023-04-28T18:53:57.657Z,53.70
2023-04-28T18:56:28.870Z,53.80
2023-04-28T18:58:58.471Z,53.80
2023-04-28T19:01:27.266Z,53.90
2023-04-28T19:03:56.838Z,54.00
2023-04-28T19:06:23.855Z,54.00
2023-04-28T19:08:50.785Z,54.10
2023-04-28T19:11:17.688Z,54.90
2023-04-28T19:13:44.813Z,54.30
2023-04-28T19:16:14.272Z,54.40
2023-04-28T19:18:44.536Z,54.40
2023-04-28T19:21:16.342Z,54.50
2023-04-28T19:23:43.485Z,54.50
2023-04-28T19:26:10.624Z,54.60
2023-04-28T19:28:37.568Z,54.60
2023-04-28T19:31:04.831Z,54.70
2023-04-28T19:33:34.063Z,54.70
2023-04-28T19:36:05.320Z,54.70
2023-04-28T19:38:32.312Z,54.70
2023-04-28T19:41:03.427Z,54.60
2023-04-28T19:43:33.142Z,54.50
2023-04-28T19:46:02.624Z,54.50
2023-04-28T19:48:29.637Z,54.50
2023-04-28T19:50:56.839Z,54.50
2023-04-28T19:53:24.008Z,54.60
2023-04-28T19:55:53.418Z,54.60
2023-04-28T19:58:20.829Z,54.80
2023-04-28T20:00:48.048Z,54.90
2023-04-28T20:03:17.623Z,54.90
2023-04-28T20:05:45.066Z,54.90
2023-04-28T20:08:12.826Z,54.90
2023-04-28T20:10:42.413Z,55.00
2023-04-28T20:13:10.365Z,55.10
2023-04-28T20:15:37.788Z,55.10
2023-04-28T20:18:04.978Z,55.20
2023-04-28T20:20:31.894Z,55.20
2023-04-28T20:23:00.946Z,55.20
2023-04-28T20:25:30.955Z,55.20
2023-04-28T20:28:00.079Z,55.20
2023-04-28T20:30:27.716Z,55.40
2023-04-28T20:32:54.871Z,55.50
2023-04-28T20:35:25.196Z,55.50
2023-04-28T20:37:53.327Z,55.50
2023-04-28T20:40:20.192Z,55.60
2023-04-28T20:42:47.046Z,55.70
2023-04-28T20:45:14.026Z,55.70
2023-04-28T20:47:40.919Z,55.80
2023-04-28T20:50:11.573Z,55.80
2023-04-28T20:52:38.542Z,55.80
2023-04-28T20:55:06.119Z,55.80
2023-04-28T20:57:33.002Z,55.70
2023-04-28T20:59:59.890Z,55.70
2023-04-28T21:02:28.178Z,55.70
2023-04-28T21:04:57.333Z,55.70
2023-04-28T21:07:24.246Z,55.70
2023-04-28T21:09:52.308Z,55.80
2023-04-28T21:12:19.544Z,55.90
2023-04-28T21:14:49.024Z,55.80
2023-04-28T21:17:15.953Z,55.90
2023-04-28T21:19:44.884Z,55.90
2023-04-28T21:22:11.788Z,56.00
2023-04-28T21:24:41.442Z,56.00
2023-04-28T21:27:08.458Z,56.10
2023-04-28T21:29:37.480Z,56.10
2023-04-28T21:32:06.668Z,56.00
2023-04-28T21:34:35.762Z,56.00
2023-04-28T21:37:04.896Z,56.10
2023-04-28T21:39:34.288Z,56.00
2023-04-28T21:42:08.013Z,55.90
2023-04-28T21:44:34.978Z,55.90
2023-04-28T21:47:01.941Z,55.90
2023-04-28T21:49:30.951Z,55.90
2023-04-28T21:51:57.797Z,55.90
2023-04-28T21:54:24.844Z,56.00
2023-04-28T21:56:54.277Z,56.10
2023-04-28T21:59:21.216Z,56.20
2023-04-28T22:01:52.876Z,56.20
2023-04-28T22:04:20.151Z,56.20
2023-04-28T22:06:49.309Z,56.20
2023-04-28T22:09:16.610Z,56.20
2023-04-28T22:11:43.516Z,56.20
2023-04-28T22:14:15.226Z,56.30
2023-04-28T22:16:48.700Z,56.30
2023-04-28T22:19:16.545Z,56.30
2023-04-28T22:21:45.307Z,56.40
2023-04-28T22:24:12.839Z,56.50
2023-04-28T22:26:42.409Z,56.70
2023-04-28T22:29:09.268Z,56.80
2023-04-28T22:31:40.997Z,56.80
2023-04-28T22:34:09.960Z,56.90
2023-04-28T22:36:39.722Z,57.00
2023-04-28T22:39:09.664Z,56.90
2023-04-28T22:41:36.577Z,57.00
2023-04-28T22:44:03.801Z,57.00
2023-04-28T22:46:32.995Z,57.00
2023-04-28T22:49:01.045Z,57.10
2023-04-28T22:51:27.929Z,57.10
2023-04-28T22:53:57.043Z,57.10
2023-04-28T22:56:24.030Z,57.10
2023-04-28T22:58:51.023Z,57.20
2023-04-28T23:01:20.594Z,57.20
2023-04-28T23:03:50.629Z,57.20
2023-04-28T23:06:20.435Z,57.30
2023-04-28T23:08:47.311Z,57.30
2023-04-28T23:11:17.301Z,57.30
2023-04-28T23:13:44.227Z,57.40
2023-04-28T23:16:13.400Z,57.40
2023-04-28T23:18:40.697Z,57.40
2023-04-28T23:21:08.032Z,57.40
2023-04-28T23:23:39.879Z,57.50
2023-04-28T23:26:06.772Z,57.50
2023-04-28T23:28:33.707Z,57.60
2023-04-28T23:31:00.587Z,57.60
2023-04-28T23:33:30.085Z,57.60
2023-04-28T23:35:59.339Z,57.70
2023-04-28T23:38:27.067Z,57.70
2023-04-28T23:40:53.943Z,57.80
2023-04-28T23:43:25.482Z,57.80
2023-04-28T23:45:52.673Z,57.80
2023-04-28T23:48:19.637Z,57.90
2023-04-28T23:50:46.467Z,57.70
2023-04-28T23:53:13.369Z,57.80
2023-04-28T23:55:45.680Z,57.80
2023-04-28T23:58:19.386Z,57.90
